PDT,Max TemperatureF,Mean TemperatureF,Min TemperatureF,Max Dew PointF,MeanDew PointF,Min DewpointF,Max Humidity, Mean Humidity, Min Humidity, Max Sea Level PressureIn, Mean Sea Level PressureIn, Min Sea Level PressureIn, Max VisibilityMiles, Mean VisibilityMiles, Min VisibilityMiles, Max Wind SpeedMPH, Mean Wind SpeedMPH, Max Gust SpeedMPH,PrecipitationIn, CloudCover, Events, WindDirDegrees
2013-3-1,79,64,48,31,21,13,37,21,11,30.36,30.26,30.18,10,10,10,9,3,,0.00,0,,209
2013-3-2,82,64,46,36,30,26,44,29,14,30.27,30.16,30.03,10,10,10,6,1,,0.00,0,,203
2013-3-3,81,66,52,39,32,23,49,32,12,30.01,29.92,29.83,10,10,10,17,5,24,0.00,0,,173
2013-3-4,80,66,53,39,36,32,47,33,21,30.01,29.93,29.86,10,10,10,15,6,21,0.00,0,,318
2013-3-5,80,64,48,39,37,33,59,37,21,30.07,29.98,29.91,10,10,10,12,4,,0.00,0,,179
2013-3-6,80,66,52,40,35,19,61,35,11,30.00,29.91,29.82,10,10,10,18,7,,0.00,0,,180
2013-3-7,73,60,48,39,36,33,66,39,23,29.93,29.86,29.81,10,10,10,22,9,26,0.00,0,,245
2013-3-8,64,58,52,48,37,29,86,51,26,29.93,29.82,29.75,10,10,6,24,11,34,0.03,4,Rain,216
2013-3-9,69,58,48,39,35,31,69,45,24,30.10,30.01,29.93,10,10,10,15,7,21,0.00,3,,314
2013-3-10,75,62,48,37,27,20,64,30,14,30.21,30.15,30.09,10,10,10,22,9,31,0.00,0,,356
2013-3-11,81,64,46,31,25,20,39,24,11,30.18,30.09,29.98,10,10,10,10,4,17,0.00,0,,329
2013-3-12,87,67,48,36,28,23,44,25,11,30.09,30.02,29.97,10,10,10,8,3,,0.00,0,,356
2013-3-13,91,72,55,36,29,26,36,22,10,30.12,30.05,29.99,10,10,10,9,4,,0.00,0,,315
2013-3-14,95,76,57,33,29,27,34,20,9,30.09,30.00,29.92,10,10,10,7,3,,0.00,0,,358
2013-3-15,93,75,57,40,33,29,38,23,12,29.96,29.88,29.78,10,10,10,12,5,,0.00,0,,191
2013-3-16,95,76,59,39,33,22,42,24,9,29.81,29.74,29.67,10,10,10,10,4,18,0.00,0,,299
2013-3-17,90,74,57,29,19,10,25,13,5,29.86,29.78,29.72,10,10,10,16,6,17,0.00,0,,330
2013-3-18,87,72,57,39,26,17,34,18,8,29.94,29.87,29.82,10,10,10,9,3,,0.00,0,,235
2013-3-19,89,74,59,41,33,23,46,26,9,29.96,29.91,29.84,10,10,10,13,6,20,0.00,0,,195
2013-3-20,88,71,55,41,33,27,36,24,15,29.98,29.88,29.75,10,10,10,13,3,,0.00,0,,270
2013-3-21,87,75,63,44,37,29,45,26,13,29.78,29.71,29.63,10,10,10,15,6,,0.00,0,,354
2013-3-22,86,73,60,39,18,-9,43,17,5,29.78,29.70,29.63,10,10,10,16,7,23,0.00,0,,318
2013-3-23,75,68,60,22,7,-6,22,10,6,30.04,29.94,29.78,10,10,10,26,12,38,0.00,0,,341
2013-3-24,81,64,48,17,10,5,21,13,6,30.03,29.94,29.86,10,10,10,9,4,,0.00,0,,13
2013-3-25,84,65,46,26,16,8,22,14,7,29.97,29.90,29.82,10,10,10,8,3,,0.00,0,,101
2013-3-26,90,74,57,35,24,10,29,17,5,29.86,29.80,29.73,10,10,10,18,6,28,0.00,0,,211
2013-3-27,89,74,60,41,32,26,35,23,11,29.88,29.83,29.78,10,10,10,17,7,26,0.00,0,,213
2013-3-28,86,70,57,44,38,31,55,30,14,29.99,29.93,29.87,10,10,7,10,5,,0.00,0,,190
2013-3-29,88,72,57,41,36,31,37,25,15,30.05,29.98,29.93,10,10,10,10,4,,0.00,0,,188
2013-3-30,91,80,69,43,36,29,36,23,12,29.99,29.93,29.87,10,10,10,12,6,20,0.00,0,,161
2013-3-31,89,74,59,44,40,34,49,31,15,29.96,29.90,29.85,10,10,10,21,8,25,0.00,0,,222